logo tempoitalia

Diretta Meteo Oskaloosa, Stati Uniti (USA)lunedì 31 agosto ore 01:35

Mappa
Sereno 25 °C Sereno 24 Ore: T.min 23 T.max 31
Ponente Sud Km/h 13 Punto di rugiada: 21 °C Umidità: 78% Visibilità: 11 Km
Il sole sorge alle: 06:35 Il sole tramonta alle: 19:44
31 Agosto 2026 01:35 tempo osservato: Sereno Sereno 25 78 1012 vento: Nord S 13
31 Agosto 2026 01:15 tempo osservato: Sereno Sereno 25 78 1012 vento: Nord S 13
31 Agosto 2026 00:55 tempo osservato: Sereno Sereno 25 78 1012 vento: Nord S 14.8
31 Agosto 2026 00:35 tempo osservato: Sereno Sereno 25 78 1012 vento: Nord S 14.8
31 Agosto 2026 00:15 tempo osservato: Sereno Sereno 26 73 1011 vento: Nord S 14.8
30 Agosto 2026 23:55 tempo osservato: Sereno Sereno 26 73 1011 vento: Nord S 14.8
30 Agosto 2026 23:35 tempo osservato: Sereno Sereno 27 69 1012 vento: Nord S 14.8
30 Agosto 2026 23:15 tempo osservato: Sereno Sereno 26 78 1011 vento: Nord S 16.7
30 Agosto 2026 22:55 tempo osservato: Sereno Sereno 26 78 1012 vento: Nord S/SE 14.8
30 Agosto 2026 22:35 tempo osservato: Sereno Sereno 25 83 1012 vento: Nord S/SE 11.1
30 Agosto 2026 22:15 tempo osservato: Sereno Sereno 25 88 1012 vento: Nord S/SE 9.3
30 Agosto 2026 21:55 tempo osservato: Sereno Sereno 26 83 1012 vento: Nord S/SE 13
30 Agosto 2026 21:35 tempo osservato: Sereno Sereno 26 83 1012 vento: Nord S/SE 16.7
30 Agosto 2026 21:15 tempo osservato: Sereno Sereno 26 88 1012 vento: Nord S/SE 14.8
30 Agosto 2026 20:55 tempo osservato: Sereno Sereno 26 88 1012 vento: Nord S/SE 13
30 Agosto 2026 20:35 tempo osservato: Sereno Sereno 26 88 1012 vento: Nord S/SE 11.1
30 Agosto 2026 20:15 tempo osservato: Sereno Sereno 26 88 1011 vento: Nord SE 11.1
30 Agosto 2026 19:55 tempo osservato: Sereno Sereno 27 83 1011 vento: Nord SE 11.1
30 Agosto 2026 19:35 tempo osservato: Sereno Sereno 28 78 1011 vento: Nord SE 9.3
30 Agosto 2026 19:15 tempo osservato: Sereno Sereno 28 78 1011 vento: Nord SE 13
30 Agosto 2026 18:55 tempo osservato: Sereno Sereno 29 74 1011 vento: Nord SE 16.7
30 Agosto 2026 18:35 tempo osservato: Sereno Sereno 29 74 1011 vento: Nord SE 13
30 Agosto 2026 18:15 tempo osservato: Sereno Sereno 30 70 1011 vento: Nord SE 13
30 Agosto 2026 17:55 tempo osservato: Sereno Sereno 30 70 1011 vento: Nord SE 13
30 Agosto 2026 17:35 tempo osservato: Sereno Sereno 31 70 1011 vento: Nord SE 13
30 Agosto 2026 17:15 tempo osservato: Sereno Sereno 31 66 1011 vento: Nord S/SE 13
30 Agosto 2026 16:55 tempo osservato: Sereno Sereno 30 66 1011 vento: Nord SE 16.7
30 Agosto 2026 16:35 tempo osservato: Sereno Sereno 30 66 1011 vento: Nord SE 18.5
30 Agosto 2026 16:15 tempo osservato: Sereno Sereno 29 70 1011 vento: Nord SE 20.3
30 Agosto 2026 15:55 tempo osservato: Sereno Sereno 30 66 1011 vento: Nord SE 20.3
30 Agosto 2026 15:35 tempo osservato: Sereno Sereno 29 70 1012 vento: Nord S/SE 14.8
30 Agosto 2026 15:15 tempo osservato: Sereno Sereno 29 70 1012 vento: Nord S/SE 13
30 Agosto 2026 14:55 tempo osservato: Sereno Sereno 28 74 1012 vento: Nord S/SE 14.8
30 Agosto 2026 14:35 tempo osservato: Sereno Sereno 27 74 1013 vento: Nord S/SE 13
30 Agosto 2026 14:15 tempo osservato: Sereno Sereno 26 78 1013 vento: Nord S/SE 14.8
30 Agosto 2026 13:55 tempo osservato: Sereno Sereno 25 78 1013 vento: Nord S/SE 16.7
30 Agosto 2026 13:35 tempo osservato: Sereno Sereno 24 83 1013 vento: Nord S/SE 13
30 Agosto 2026 13:15 tempo osservato: Sereno Sereno 24 88 1013 vento: Nord S/SE 13
30 Agosto 2026 12:50 tempo osservato: Sereno Sereno 24 88 1013 vento: Nord S/SE 7.4
30 Agosto 2026 12:35 tempo osservato: Sereno Sereno 24 88 1013 vento: Nord SE 7.4
30 Agosto 2026 12:15 tempo osservato: Nuvoloso Nuvoloso 23 88 1014 vento: Nord N 5.5
30 Agosto 2026 11:55 tempo osservato: Nuvoloso Nuvoloso 23 88 1013 vento: Nord NO 7.4
30 Agosto 2026 11:35 tempo osservato: Sereno Sereno 23 88 1013 vento: Nord N 5.5
30 Agosto 2026 11:15 tempo osservato: Nuvoloso Nuvoloso 23 83 1012 vento: Nord N 5.5
30 Agosto 2026 10:55 tempo osservato: Nuvoloso Nuvoloso 23 83 1013 vento: Nord O 9.3
30 Agosto 2026 10:35 tempo osservato: Sereno Sereno 25 69 1012 vento: Nord S/SO 20.3
30 Agosto 2026 10:15 tempo osservato: Sereno Sereno 25 69 1012 vento: Nord S/SO 22.2
30 Agosto 2026 09:55 tempo osservato: Sereno Sereno 26 65 1012 vento: Nord S/SO 22.2
30 Agosto 2026 09:35 tempo osservato: Sereno Sereno 27 61 1012 vento: Nord SO 22.2
30 Agosto 2026 09:15 tempo osservato: Sereno Sereno 27 61 1012 vento: Nord SO 27.8
30 Agosto 2026 08:55 tempo osservato: Sereno Sereno 27 61 1012 vento: Nord SO 24
30 Agosto 2026 08:35 tempo osservato: Sereno Sereno 25 73 1012 vento: Nord S/SO 11.1
30 Agosto 2026 08:15 tempo osservato: Sereno Sereno 24 73 1012 vento: Nord SO 7.4
30 Agosto 2026 07:55 tempo osservato: Sereno Sereno 23 78 1012 vento: Nord S 13
30 Agosto 2026 07:35 tempo osservato: Sereno Sereno 23 78 1012 vento: Nord S 9.3
30 Agosto 2026 07:15 tempo osservato: Sereno Sereno 23 78 1012 vento: Nord S 9.3
30 Agosto 2026 06:55 tempo osservato: Sereno Sereno 23 73 1012 vento: Nord S 11.1
30 Agosto 2026 06:35 tempo osservato: Sereno Sereno 24 69 1012 vento: Nord S 11.1
30 Agosto 2026 06:15 tempo osservato: Sereno Sereno 24 69 1012 vento: Nord S/SO 14.8
30 Agosto 2026 05:55 tempo osservato: Sereno Sereno 24 69 1012 vento: Nord S/SO 14.8
30 Agosto 2026 05:35 tempo osservato: Sereno Sereno 23 73 1012 vento: Nord S/SO 13
30 Agosto 2026 05:15 tempo osservato: Sereno Sereno 23 73 1012 vento: Nord S/SO 14.8
30 Agosto 2026 04:55 tempo osservato: Sereno Sereno 23 73 1012 vento: Nord S/SO 14.8
30 Agosto 2026 04:35 tempo osservato: Sereno Sereno 23 78 1012 vento: Nord S/SO 16.7
30 Agosto 2026 04:15 tempo osservato: Sereno Sereno 23 78 1012 vento: Nord S/SO 14.8
30 Agosto 2026 03:55 tempo osservato: Sereno Sereno 23 78 1012 vento: Nord S/SO 14.8
30 Agosto 2026 03:35 tempo osservato: Sereno Sereno 23 78 1012 vento: Nord S 16.7
30 Agosto 2026 03:15 tempo osservato: Sereno Sereno 23 78 1012 vento: Nord S 14.8
30 Agosto 2026 02:55 tempo osservato: Sereno Sereno 23 78 1012 vento: Nord S 14.8
30 Agosto 2026 02:35 tempo osservato: Sereno Sereno 23 78 1012 vento: Nord S 16.7
30 Agosto 2026 02:15 tempo osservato: Sereno Sereno 23 78 1012 vento: Nord S 16.7
30 Agosto 2026 01:55 tempo osservato: Sereno Sereno 23 78 1012 vento: Nord S 16.7
30 Agosto 2026 01:35 tempo osservato: Sereno Sereno 23 78 1012 vento: Nord S 14.8